sensor_id;sensor_type;location;lat;lon;timestamp;pressure;altitude;pressure_sealevel;temperature;humidity
27685;BME280;46113;50.130;8.526;2023-02-20T00:01:39;100094.28;;;4.56;79.51
27685;BME280;46113;50.130;8.526;2023-02-20T00:04:05;100085.81;;;4.41;80.80
27685;BME280;46113;50.130;8.526;2023-02-20T00:06:32;100082.00;;;4.58;79.97
27685;BME280;46113;50.130;8.526;2023-02-20T00:08:58;100080.84;;;4.25;79.04
27685;BME280;46113;50.130;8.526;2023-02-20T00:11:25;100069.59;;;4.20;78.92
27685;BME280;46113;50.130;8.526;2023-02-20T00:13:51;100070.97;;;3.91;78.60
27685;BME280;46113;50.130;8.526;2023-02-20T00:16:18;100076.94;;;3.99;78.27
27685;BME280;46113;50.130;8.526;2023-02-20T00:18:44;100070.97;;;3.93;78.59
27685;BME280;46113;50.130;8.526;2023-02-20T00:21:11;100077.31;;;3.76;78.68
27685;BME280;46113;50.130;8.526;2023-02-20T00:23:38;100056.44;;;3.73;78.65
27685;BME280;46113;50.130;8.526;2023-02-20T00:26:09;100065.38;;;3.61;78.62
27685;BME280;46113;50.130;8.526;2023-02-20T00:28:38;100070.81;;;3.45;79.23
27685;BME280;46113;50.130;8.526;2023-02-20T00:31:06;100071.03;;;3.31;79.29
27685;BME280;46113;50.130;8.526;2023-02-20T00:33:34;100067.75;;;3.17;79.65
27685;BME280;46113;50.130;8.526;2023-02-20T00:36:02;100078.47;;;2.97;79.89
27685;BME280;46113;50.130;8.526;2023-02-20T00:38:29;100074.25;;;2.86;80.27
27685;BME280;46113;50.130;8.526;2023-02-20T00:40:56;100074.44;;;2.69;80.91
27685;BME280;46113;50.130;8.526;2023-02-20T00:43:22;100073.78;;;2.51;81.32
27685;BME280;46113;50.130;8.526;2023-02-20T00:45:49;100073.81;;;2.47;81.32
27685;BME280;46113;50.130;8.526;2023-02-20T00:48:15;100068.94;;;2.15;82.62
27685;BME280;46113;50.130;8.526;2023-02-20T00:50:42;100072.34;;;2.25;82.08
27685;BME280;46113;50.130;8.526;2023-02-20T00:53:08;100060.22;;;2.18;82.24
27685;BME280;46113;50.130;8.526;2023-02-20T00:55:35;100071.59;;;2.11;82.25
27685;BME280;46113;50.130;8.526;2023-02-20T00:58:02;100063.84;;;2.01;83.25
27685;BME280;46113;50.130;8.526;2023-02-20T01:00:29;100060.34;;;2.04;82.28
27685;BME280;46113;50.130;8.526;2023-02-20T01:02:56;100061.00;;;2.28;81.98
27685;BME280;46113;50.130;8.526;2023-02-20T01:05:23;100064.53;;;2.22;82.52
27685;BME280;46113;50.130;8.526;2023-02-20T01:07:51;100067.84;;;2.38;81.80
27685;BME280;46113;50.130;8.526;2023-02-20T01:10:18;100064.19;;;2.52;81.79
27685;BME280;46113;50.130;8.526;2023-02-20T01:12:44;100072.28;;;2.30;82.31
27685;BME280;46113;50.130;8.526;2023-02-20T01:15:13;100074.56;;;2.60;81.91
27685;BME280;46113;50.130;8.526;2023-02-20T01:17:40;100076.22;;;2.67;81.21
27685;BME280;46113;50.130;8.526;2023-02-20T01:20:07;100078.78;;;2.70;81.25
27685;BME280;46113;50.130;8.526;2023-02-20T01:22:34;100067.41;;;2.74;80.36
27685;BME280;46113;50.130;8.526;2023-02-20T01:25:00;100070.91;;;2.73;80.13
27685;BME280;46113;50.130;8.526;2023-02-20T01:27:27;100066.59;;;2.69;79.86
27685;BME280;46113;50.130;8.526;2023-02-20T01:29:53;100067.50;;;2.68;79.62
27685;BME280;46113;50.130;8.526;2023-02-20T01:32:20;100067.38;;;2.77;79.73
27685;BME280;46113;50.130;8.526;2023-02-20T01:34:46;100065.66;;;2.76;80.20
27685;BME280;46113;50.130;8.526;2023-02-20T01:37:15;100059.34;;;2.91;79.35
27685;BME280;46113;50.130;8.526;2023-02-20T01:39:41;100062.94;;;2.86;78.58
27685;BME280;46113;50.130;8.526;2023-02-20T01:42:13;100061.25;;;2.81;79.67
27685;BME280;46113;50.130;8.526;2023-02-20T01:44:43;100069.28;;;2.66;79.88
27685;BME280;46113;50.130;8.526;2023-02-20T01:47:21;100059.66;;;2.70;80.31
27685;BME280;46113;50.130;8.526;2023-02-20T01:49:55;100057.56;;;2.95;79.40
27685;BME280;46113;50.130;8.526;2023-02-20T01:52:29;100052.59;;;2.78;80.06
27685;BME280;46113;50.130;8.526;2023-02-20T01:55:19;100042.09;;;2.79;80.02
27685;BME280;46113;50.130;8.526;2023-02-20T01:57:54;100040.34;;;2.81;79.52
27685;BME280;46113;50.130;8.526;2023-02-20T02:00:22;100036.16;;;2.66;80.22
27685;BME280;46113;50.130;8.526;2023-02-20T02:02:59;100045.97;;;2.49;80.28
27685;BME280;46113;50.130;8.526;2023-02-20T02:05:28;100040.28;;;2.11;81.19
27685;BME280;46113;50.130;8.526;2023-02-20T02:07:56;100042.66;;;2.31;80.60
27685;BME280;46113;50.130;8.526;2023-02-20T02:10:28;100028.13;;;2.07;80.72
27685;BME280;46113;50.130;8.526;2023-02-20T02:12:56;100027.25;;;2.08;80.80
27685;BME280;46113;50.130;8.526;2023-02-20T02:15:23;100027.28;;;2.05;80.66
27685;BME280;46113;50.130;8.526;2023-02-20T02:18:15;100028.16;;;2.04;80.04
27685;BME280;46113;50.130;8.526;2023-02-20T02:37:26;100019.91;;;1.55;80.74
27685;BME280;46113;50.130;8.526;2023-02-20T02:40:07;100024.41;;;1.35;81.59
27685;BME280;46113;50.130;8.526;2023-02-20T02:43:07;100019.13;;;1.45;81.49
27685;BME280;46113;50.130;8.526;2023-02-20T02:45:38;100019.38;;;1.09;82.07
27685;BME280;46113;50.130;8.526;2023-02-20T02:48:31;100014.97;;;1.20;81.67
27685;BME280;46113;50.130;8.526;2023-02-20T02:51:07;100011.41;;;1.34;81.27
27685;BME280;46113;50.130;8.526;2023-02-20T02:53:36;100018.38;;;1.27;81.39
27685;BME280;46113;50.130;8.526;2023-02-20T02:56:02;100014.13;;;1.11;82.14
27685;BME280;46113;50.130;8.526;2023-02-20T02:58:47;100014.19;;;1.00;82.87
27685;BME280;46113;50.130;8.526;2023-02-20T03:01:19;100001.09;;;1.15;82.06
27685;BME280;46113;50.130;8.526;2023-02-20T03:03:49;100001.16;;;1.03;82.44
27685;BME280;46113;50.130;8.526;2023-02-20T03:06:21;100003.75;;;1.04;82.79
27685;BME280;46113;50.130;8.526;2023-02-20T03:08:56;100006.34;;;1.09;82.99
27685;BME280;46113;50.130;8.526;2023-02-20T03:11:27;99989.06;;;0.91;83.37
27685;BME280;46113;50.130;8.526;2023-02-20T03:14:06;99988.97;;;1.00;83.03
27685;BME280;46113;50.130;8.526;2023-02-20T03:17:04;99982.00;;;1.12;82.53
27685;BME280;46113;50.130;8.526;2023-02-20T03:19:40;99996.09;;;0.70;83.75
27685;BME280;46113;50.130;8.526;2023-02-20T03:22:18;99990.78;;;0.92;83.53
27685;BME280;46113;50.130;8.526;2023-02-20T03:24:48;99983.88;;;0.86;83.10
27685;BME280;46113;50.130;8.526;2023-02-20T03:27:39;99996.13;;;0.65;84.20
27685;BME280;46113;50.130;8.526;2023-02-20T03:32:42;99990.84;;;0.81;83.66
27685;BME280;46113;50.130;8.526;2023-02-20T03:35:31;99999.53;;;0.78;83.82
27685;BME280;46113;50.130;8.526;2023-02-20T03:38:20;100002.09;;;0.85;83.86
27685;BME280;46113;50.130;8.526;2023-02-20T03:41:06;99997.72;;;0.90;83.76
27685;BME280;46113;50.130;8.526;2023-02-20T03:43:55;100002.03;;;0.97;83.58
27685;BME280;46113;50.130;8.526;2023-02-20T03:46:26;100008.28;;;0.66;85.62
27685;BME280;46113;50.130;8.526;2023-02-20T03:49:02;100006.38;;;1.00;84.54
27685;BME280;46113;50.130;8.526;2023-02-20T03:51:30;100010.72;;;1.04;84.00
27685;BME280;46113;50.130;8.526;2023-02-20T03:54:02;100015.84;;;1.19;83.38
27685;BME280;46113;50.130;8.526;2023-02-20T03:56:33;100017.63;;;1.11;83.02
27685;BME280;46113;50.130;8.526;2023-02-20T03:59:27;100019.38;;;1.07;83.17
27685;BME280;46113;50.130;8.526;2023-02-20T04:01:53;100014.97;;;1.17;82.89
27685;BME280;46113;50.130;8.526;2023-02-20T04:04:27;100007.19;;;1.11;82.72
27685;BME280;46113;50.130;8.526;2023-02-20T04:06:55;100002.22;;;0.66;83.21
27685;BME280;46113;50.130;8.526;2023-02-20T04:09:26;100003.81;;;0.89;82.74
27685;BME280;46113;50.130;8.526;2023-02-20T04:11:59;100005.50;;;1.02;82.34
27685;BME280;46113;50.130;8.526;2023-02-20T04:14:30;100009.88;;;0.94;83.24
27685;BME280;46113;50.130;8.526;2023-02-20T04:17:07;100006.38;;;0.96;83.07
27685;BME280;46113;50.130;8.526;2023-02-20T04:19:35;100013.31;;;1.01;83.27
27685;BME280;46113;50.130;8.526;2023-02-20T04:22:06;100021.84;;;1.31;82.42
27685;BME280;46113;50.130;8.526;2023-02-20T04:24:40;100012.19;;;1.44;81.61
27685;BME280;46113;50.130;8.526;2023-02-20T04:27:09;100012.94;;;1.57;81.59
27685;BME280;46113;50.130;8.526;2023-02-20T04:29:44;100012.09;;;1.56;79.74
27685;BME280;46113;50.130;8.526;2023-02-20T04:32:11;100012.09;;;1.52;80.44
27685;BME280;46113;50.130;8.526;2023-02-20T04:34:38;100008.78;;;1.31;80.14
27685;BME280;46113;50.130;8.526;2023-02-20T04:37:12;100001.91;;;1.20;80.43
27685;BME280;46113;50.130;8.526;2023-02-20T04:39:40;99998.25;;;1.46;79.71
27685;BME280;46113;50.130;8.526;2023-02-20T04:42:09;100001.66;;;1.53;79.52
27685;BME280;46113;50.130;8.526;2023-02-20T04:44:37;100000.91;;;1.40;79.40
27685;BME280;46113;50.130;8.526;2023-02-20T04:47:11;100007.09;;;1.25;79.88
27685;BME280;46113;50.130;8.526;2023-02-20T04:49:38;100005.50;;;1.01;80.88
27685;BME280;46113;50.130;8.526;2023-02-20T04:52:07;100001.00;;;1.28;79.41
27685;BME280;46113;50.130;8.526;2023-02-20T04:54:34;100007.09;;;1.25;79.26
27685;BME280;46113;50.130;8.526;2023-02-20T04:57:02;100006.44;;;0.90;79.76
27685;BME280;46113;50.130;8.526;2023-02-20T04:59:29;100002.75;;;1.24;78.58
27685;BME280;46113;50.130;8.526;2023-02-20T05:01:56;100007.06;;;1.30;79.29
27685;BME280;46113;50.130;8.526;2023-02-20T05:04:26;100008.66;;;1.48;77.92
27685;BME280;46113;50.130;8.526;2023-02-20T05:06:54;100006.13;;;1.37;78.05
27685;BME280;46113;50.130;8.526;2023-02-20T05:09:21;100006.34;;;1.09;78.99
27685;BME280;46113;50.130;8.526;2023-02-20T05:11:48;100008.84;;;1.21;78.95
27685;BME280;46113;50.130;8.526;2023-02-20T05:14:15;100005.25;;;1.40;78.55
27685;BME280;46113;50.130;8.526;2023-02-20T05:16:42;99995.81;;;1.21;79.00
27685;BME280;46113;50.130;8.526;2023-02-20T05:19:11;99988.97;;;1.02;79.47
27685;BME280;46113;50.130;8.526;2023-02-20T05:21:41;99988.13;;;1.04;79.66
27685;BME280;46113;50.130;8.526;2023-02-20T05:24:26;99980.13;;;1.29;79.20
27685;BME280;46113;50.130;8.526;2023-02-20T05:26:54;99975.03;;;1.14;78.99
27685;BME280;46113;50.130;8.526;2023-02-20T05:29:21;99982.72;;;1.31;79.21
27685;BME280;46113;50.130;8.526;2023-02-20T05:31:48;99984.38;;;1.44;78.05
27685;BME280;46113;50.130;8.526;2023-02-20T05:34:14;99975.91;;;1.16;79.58
27685;BME280;46113;50.130;8.526;2023-02-20T05:36:41;99978.41;;;1.27;79.68
27685;BME280;46113;50.130;8.526;2023-02-20T05:39:08;99979.16;;;1.40;79.15
27685;BME280;46113;50.130;8.526;2023-02-20T05:41:35;99979.09;;;1.51;78.74
27685;BME280;46113;50.130;8.526;2023-02-20T05:44:01;99984.38;;;1.38;79.04
27685;BME280;46113;50.130;8.526;2023-02-20T05:46:28;99974.97;;;1.23;79.62
27685;BME280;46113;50.130;8.526;2023-02-20T05:48:55;99987.00;;;1.38;79.24
27685;BME280;46113;50.130;8.526;2023-02-20T05:51:27;99987.00;;;1.40;78.92
27685;BME280;46113;50.130;8.526;2023-02-20T05:53:54;99980.06;;;1.35;79.55
27685;BME280;46113;50.130;8.526;2023-02-20T05:56:22;99955.00;;;1.19;79.47
27685;BME280;46113;50.130;8.526;2023-02-20T05:58:48;99960.34;;;1.03;80.08
27685;BME280;46113;50.130;8.526;2023-02-20T06:01:23;99966.25;;;1.22;79.91
27685;BME280;46113;50.130;8.526;2023-02-20T06:03:51;99971.53;;;1.19;80.27
27685;BME280;46113;50.130;8.526;2023-02-20T06:06:18;99957.66;;;1.14;80.58
27685;BME280;46113;50.130;8.526;2023-02-20T06:08:45;99943.81;;;1.07;80.92
27685;BME280;46113;50.130;8.526;2023-02-20T06:11:12;99943.69;;;1.25;81.08
27685;BME280;46113;50.130;8.526;2023-02-20T06:13:41;99954.25;;;0.96;81.54
27685;BME280;46113;50.130;8.526;2023-02-20T06:16:08;99946.28;;;1.21;81.58
27685;BME280;46113;50.130;8.526;2023-02-20T06:18:40;99943.72;;;1.18;81.65
27685;BME280;46113;50.130;8.526;2023-02-20T06:21:08;99948.81;;;1.34;80.83
27685;BME280;46113;50.130;8.526;2023-02-20T06:23:36;99951.38;;;1.40;81.23
27685;BME280;46113;50.130;8.526;2023-02-20T06:26:04;99948.56;;;1.60;80.36
27685;BME280;46113;50.130;8.526;2023-02-20T06:28:31;99948.06;;;1.21;80.98
27685;BME280;46113;50.130;8.526;2023-02-20T06:30:58;99959.13;;;1.43;80.69
27685;BME280;46113;50.130;8.526;2023-02-20T06:33:27;99964.34;;;1.46;80.67
27685;BME280;46113;50.130;8.526;2023-02-20T06:35:54;99958.09;;;1.65;80.26
27685;BME280;46113;50.130;8.526;2023-02-20T06:38:20;99966.75;;;1.68;79.85
27685;BME280;46113;50.130;8.526;2023-02-20T06:40:47;99973.50;;;1.86;79.57
27685;BME280;46113;50.130;8.526;2023-02-20T06:43:14;99967.53;;;1.80;79.32
27685;BME280;46113;50.130;8.526;2023-02-20T06:45:41;99973.72;;;1.68;80.45
27685;BME280;46113;50.130;8.526;2023-02-20T06:48:08;99971.03;;;1.75;79.50
27685;BME280;46113;50.130;8.526;2023-02-20T06:50:35;99972.63;;;1.89;79.12
27685;BME280;46113;50.130;8.526;2023-02-20T06:53:01;99977.75;;;1.98;79.45
27685;BME280;46113;50.130;8.526;2023-02-20T06:55:29;99969.69;;;2.19;77.85
27685;BME280;46113;50.130;8.526;2023-02-20T06:57:55;99964.41;;;2.23;78.07
27685;BME280;46113;50.130;8.526;2023-02-20T07:00:22;99960.75;;;2.38;77.53
27685;BME280;46113;50.130;8.526;2023-02-20T07:37:54;99958.56;;;2.73;75.08
27685;BME280;46113;50.130;8.526;2023-02-20T07:40:20;99961.25;;;2.68;75.30
27685;BME280;46113;50.130;8.526;2023-02-20T07:42:47;99965.00;;;2.47;75.49
27685;BME280;46113;50.130;8.526;2023-02-20T07:45:20;99960.66;;;2.46;75.64
27685;BME280;46113;50.130;8.526;2023-02-20T07:47:47;99962.41;;;2.44;76.13
27685;BME280;46113;50.130;8.526;2023-02-20T07:50:15;99966.41;;;2.70;75.17
27685;BME280;46113;50.130;8.526;2023-02-20T07:52:43;99965.72;;;2.57;76.17
27685;BME280;46113;50.130;8.526;2023-02-20T07:55:17;99961.84;;;2.86;75.15
27685;BME280;46113;50.130;8.526;2023-02-20T07:57:46;99956.75;;;3.33;73.28
27685;BME280;46113;50.130;8.526;2023-02-20T08:00:14;99954.44;;;3.15;72.97
27685;BME280;46113;50.130;8.526;2023-02-20T08:02:41;99956.59;;;2.88;73.74
27685;BME280;46113;50.130;8.526;2023-02-20T08:05:08;99955.19;;;3.23;73.20
27685;BME280;46113;50.130;8.526;2023-02-20T08:07:36;99951.28;;;3.49;73.39
27685;BME280;46113;50.130;8.526;2023-02-20T08:10:04;99949.47;;;3.54;72.33
27685;BME280;46113;50.130;8.526;2023-02-20T08:12:31;99946.34;;;3.30;72.68
27685;BME280;46113;50.130;8.526;2023-02-20T08:14:58;99943.38;;;3.99;72.13
27685;BME280;46113;50.130;8.526;2023-02-20T08:17:24;99944.72;;;3.77;72.90
27685;BME280;46113;50.130;8.526;2023-02-20T08:19:59;99939.25;;;3.37;73.01
27685;BME280;46113;50.130;8.526;2023-02-20T08:22:26;99945.03;;;4.05;71.21
27685;BME280;46113;50.130;8.526;2023-02-20T08:25:07;99940.97;;;3.90;70.82
27685;BME280;46113;50.130;8.526;2023-02-20T08:27:34;99936.66;;;3.87;71.16
27685;BME280;46113;50.130;8.526;2023-02-20T08:30:05;99932.16;;;4.38;70.01
27685;BME280;46113;50.130;8.526;2023-02-20T08:32:32;99927.75;;;3.96;70.57
27685;BME280;46113;50.130;8.526;2023-02-20T08:34:59;99932.16;;;4.38;70.59
27685;BME280;46113;50.130;8.526;2023-02-20T08:37:25;99926.09;;;3.92;71.25
27685;BME280;46113;50.130;8.526;2023-02-20T08:39:52;99919.53;;;4.15;71.67
27685;BME280;46113;50.130;8.526;2023-02-20T08:42:19;99923.31;;;4.82;68.24
27685;BME280;46113;50.130;8.526;2023-02-20T08:44:45;99921.13;;;4.63;68.44
27685;BME280;46113;50.130;8.526;2023-02-20T08:47:12;99915.41;;;4.84;68.92
27685;BME280;46113;50.130;8.526;2023-02-20T08:49:38;99914.94;;;5.04;67.35
27685;BME280;46113;50.130;8.526;2023-02-20T08:52:05;99917.63;;;5.01;68.05
27685;BME280;46113;50.130;8.526;2023-02-20T08:54:32;99910.66;;;4.63;69.86
27685;BME280;46113;50.130;8.526;2023-02-20T08:56:58;99905.03;;;3.97;70.82
27685;BME280;46113;50.130;8.526;2023-02-20T08:59:25;99902.59;;;4.71;69.20
27685;BME280;46113;50.130;8.526;2023-02-20T09:01:52;99919.31;;;4.65;67.89
27685;BME280;46113;50.130;8.526;2023-02-20T09:04:18;99914.69;;;4.37;69.71
27685;BME280;46113;50.130;8.526;2023-02-20T09:06:46;99908.50;;;4.40;69.57
27685;BME280;46113;50.130;8.526;2023-02-20T09:09:13;99907.94;;;4.66;68.46
27685;BME280;46113;50.130;8.526;2023-02-20T09:11:39;99906.59;;;4.48;69.02
27685;BME280;46113;50.130;8.526;2023-02-20T09:14:06;99915.34;;;4.06;69.56
27685;BME280;46113;50.130;8.526;2023-02-20T09:16:35;99915.31;;;4.50;69.46
27685;BME280;46113;50.130;8.526;2023-02-20T09:19:02;99911.06;;;4.83;68.84
27685;BME280;46113;50.130;8.526;2023-02-20T09:21:28;99914.97;;;4.23;70.18
27685;BME280;46113;50.130;8.526;2023-02-20T09:23:55;99918.59;;;4.59;69.62
27685;BME280;46113;50.130;8.526;2023-02-20T09:26:22;99916.31;;;4.02;71.01
27685;BME280;46113;50.130;8.526;2023-02-20T09:28:48;99910.66;;;4.63;69.06
27685;BME280;46113;50.130;8.526;2023-02-20T09:31:15;99916.00;;;4.18;70.34
27685;BME280;46113;50.130;8.526;2023-02-20T09:33:45;99907.91;;;4.27;70.90
27685;BME280;46113;50.130;8.526;2023-02-20T09:36:17;99918.03;;;4.03;70.91
27685;BME280;46113;50.130;8.526;2023-02-20T09:38:43;99922.75;;;4.28;70.71
27685;BME280;46113;50.130;8.526;2023-02-20T09:41:24;99908.94;;;4.20;70.91
27685;BME280;46113;50.130;8.526;2023-02-20T09:43:58;99913.03;;;3.89;73.25
27685;BME280;46113;50.130;8.526;2023-02-20T09:46:29;99908.88;;;3.80;72.86
27685;BME280;46113;50.130;8.526;2023-02-20T09:49:19;99903.88;;;4.12;73.00
27685;BME280;46113;50.130;8.526;2023-02-20T09:51:53;99907.41;;;4.09;73.03
27685;BME280;46113;50.130;8.526;2023-02-20T09:54:27;99909.53;;;4.34;70.56
27685;BME280;46113;50.130;8.526;2023-02-20T09:56:59;99910.84;;;4.92;69.62
27685;BME280;46113;50.130;8.526;2023-02-20T10:02:20;99903.53;;;4.69;69.62
27685;BME280;46113;50.130;8.526;2023-02-20T10:04:53;99891.88;;;4.80;69.63
27685;BME280;46113;50.130;8.526;2023-02-20T10:07:37;99896.34;;;4.77;69.41
27685;BME280;46113;50.130;8.526;2023-02-20T10:10:18;99908.97;;;4.61;70.27
27685;BME280;46113;50.130;8.526;2023-02-20T10:16:05;99892.38;;;4.97;69.56
27685;BME280;46113;50.130;8.526;2023-02-20T10:21:21;99889.75;;;4.97;69.26
27685;BME280;46113;50.130;8.526;2023-02-20T10:23:58;99879.66;;;4.79;69.38
27685;BME280;46113;50.130;8.526;2023-02-20T10:26:34;99884.78;;;5.22;67.72
27685;BME280;46113;50.130;8.526;2023-02-20T10:29:29;99876.13;;;5.53;66.46
27685;BME280;46113;50.130;8.526;2023-02-20T10:32:24;99875.22;;;5.54;66.37
27685;BME280;46113;50.130;8.526;2023-02-20T10:35:17;99873.44;;;5.20;66.48
27685;BME280;46113;50.130;8.526;2023-02-20T10:37:49;99867.66;;;5.07;68.60
27685;BME280;46113;50.130;8.526;2023-02-20T10:45:51;99866.09;;;5.68;65.74
27685;BME280;46113;50.130;8.526;2023-02-20T10:48:26;99852.31;;;5.26;65.60
27685;BME280;46113;50.130;8.526;2023-02-20T10:55:57;99847.50;;;5.44;65.64
27685;BME280;46113;50.130;8.526;2023-02-20T10:58:36;99852.72;;;5.77;65.01
27685;BME280;46113;50.130;8.526;2023-02-20T11:01:11;99840.41;;;5.79;64.48
27685;BME280;46113;50.130;8.526;2023-02-20T11:06:08;99830.66;;;5.83;65.07
27685;BME280;46113;50.130;8.526;2023-02-20T11:08:37;99823.44;;;5.91;64.47
27685;BME280;46113;50.130;8.526;2023-02-20T11:11:20;99811.13;;;6.50;62.87
27685;BME280;46113;50.130;8.526;2023-02-20T11:13:49;99804.16;;;5.91;63.62
27685;BME280;46113;50.130;8.526;2023-02-20T11:16:31;99796.66;;;6.37;62.54
27685;BME280;46113;50.130;8.526;2023-02-20T11:19:07;99792.41;;;6.04;61.41
27685;BME280;46113;50.130;8.526;2023-02-20T11:21:40;99798.13;;;6.17;61.80
27685;BME280;46113;50.130;8.526;2023-02-20T11:24:30;99789.53;;;6.12;61.96
27685;BME280;46113;50.130;8.526;2023-02-20T11:27:10;99784.75;;;6.52;61.14
27685;BME280;46113;50.130;8.526;2023-02-20T11:30:00;99790.16;;;6.20;60.63
27685;BME280;46113;50.130;8.526;2023-02-20T11:32:39;99781.09;;;6.31;60.54
27685;BME280;46113;50.130;8.526;2023-02-20T11:37:47;99764.50;;;6.29;61.69
27685;BME280;46113;50.130;8.526;2023-02-20T11:40:30;99773.66;;;5.86;62.68
27685;BME280;46113;50.130;8.526;2023-02-20T11:45:39;99763.19;;;6.15;62.28
27685;BME280;46113;50.130;8.526;2023-02-20T11:48:17;99767.06;;;6.30;62.09
27685;BME280;46113;50.130;8.526;2023-02-20T11:50:50;99758.06;;;6.10;62.26
27685;BME280;46113;50.130;8.526;2023-02-20T11:53:26;99748.53;;;6.06;61.61
27685;BME280;46113;50.130;8.526;2023-02-20T11:56:10;99752.09;;;6.05;62.33
27685;BME280;46113;50.130;8.526;2023-02-20T11:58:39;99745.19;;;6.01;62.09
27685;BME280;46113;50.130;8.526;2023-02-20T12:01:06;99739.78;;;6.34;61.29
27685;BME280;46113;50.130;8.526;2023-02-20T12:03:34;99745.03;;;6.07;62.04
27685;BME280;46113;50.130;8.526;2023-02-20T12:09:01;99729.88;;;6.43;62.47
27685;BME280;46113;50.130;8.526;2023-02-20T12:11:29;99718.22;;;6.51;61.51
27685;BME280;46113;50.130;8.526;2023-02-20T12:13:57;99734.13;;;6.47;61.34
27685;BME280;46113;50.130;8.526;2023-02-20T12:19:25;99717.56;;;6.70;60.17
27685;BME280;46113;50.130;8.526;2023-02-20T12:27:29;99711.66;;;6.89;59.33
27685;BME280;46113;50.130;8.526;2023-02-20T12:36:15;99704.19;;;7.02;59.04
27685;BME280;46113;50.130;8.526;2023-02-20T12:38:54;99701.66;;;6.75;60.68
27685;BME280;46113;50.130;8.526;2023-02-20T12:41:29;99695.78;;;6.92;60.26
27685;BME280;46113;50.130;8.526;2023-02-20T12:47:04;99694.13;;;6.89;58.88
27685;BME280;46113;50.130;8.526;2023-02-20T12:50:13;99684.59;;;7.11;57.43
27685;BME280;46113;50.130;8.526;2023-02-20T12:53:03;99678.97;;;7.46;57.85
27685;BME280;46113;50.130;8.526;2023-02-20T12:58:49;99660.94;;;7.35;57.89
27685;BME280;46113;50.130;8.526;2023-02-20T13:01:20;99649.09;;;7.23;57.38
27685;BME280;46113;50.130;8.526;2023-02-20T13:04:28;99641.88;;;7.74;57.75
27685;BME280;46113;50.130;8.526;2023-02-20T13:07:30;99631.03;;;7.60;57.51
27685;BME280;46113;50.130;8.526;2023-02-20T13:10:21;99618.47;;;7.66;56.77
27685;BME280;46113;50.130;8.526;2023-02-20T13:12:49;99613.63;;;7.78;57.15
27685;BME280;46113;50.130;8.526;2023-02-20T13:15:37;99600.53;;;7.54;57.50
27685;BME280;46113;50.130;8.526;2023-02-20T13:18:12;99602.00;;;7.39;56.48
27685;BME280;46113;50.130;8.526;2023-02-20T13:20:49;99600.47;;;7.55;57.36
27685;BME280;46113;50.130;8.526;2023-02-20T13:25:45;99597.31;;;7.69;55.78
27685;BME280;46113;50.130;8.526;2023-02-20T13:31:10;99596.13;;;7.32;54.09
27685;BME280;46113;50.130;8.526;2023-02-20T13:33:38;99571.03;;;7.68;54.44
27685;BME280;46113;50.130;8.526;2023-02-20T13:42:23;99558.47;;;7.75;51.72
27685;BME280;46113;50.130;8.526;2023-02-20T13:44:54;99557.84;;;7.68;52.24
27685;BME280;46113;50.130;8.526;2023-02-20T13:47:33;99549.25;;;7.42;51.40
27685;BME280;46113;50.130;8.526;2023-02-20T13:50:17;99549.81;;;7.71;51.29
27685;BME280;46113;50.130;8.526;2023-02-20T13:52:49;99545.69;;;7.65;51.07
27685;BME280;46113;50.130;8.526;2023-02-20T13:55:23;99538.66;;;7.64;50.03
27685;BME280;46113;50.130;8.526;2023-02-20T13:57:53;99525.28;;;7.70;50.35
27685;BME280;46113;50.130;8.526;2023-02-20T14:00:25;99529.94;;;7.84;50.34
27685;BME280;46113;50.130;8.526;2023-02-20T14:02:53;99530.41;;;7.51;52.90
27685;BME280;46113;50.130;8.526;2023-02-20T14:05:25;99522.41;;;7.54;51.60
27685;BME280;46113;50.130;8.526;2023-02-20T14:07:52;99521.44;;;7.57;50.18
27685;BME280;46113;50.130;8.526;2023-02-20T14:10:30;99515.06;;;7.83;50.63
27685;BME280;46113;50.130;8.526;2023-02-20T14:18:29;99500.09;;;7.84;49.41
27685;BME280;46113;50.130;8.526;2023-02-20T14:21:15;99496.09;;;7.75;49.59
27685;BME280;46113;50.130;8.526;2023-02-20T14:23:46;99495.81;;;7.61;50.71
27685;BME280;46113;50.130;8.526;2023-02-20T14:26:31;99485.13;;;7.86;49.18
27685;BME280;46113;50.130;8.526;2023-02-20T14:28:59;99495.91;;;8.01;48.68
27685;BME280;46113;50.130;8.526;2023-02-20T14:31:34;99489.19;;;7.73;49.10
27685;BME280;46113;50.130;8.526;2023-02-20T14:34:15;99502.50;;;7.69;48.77
27685;BME280;46113;50.130;8.526;2023-02-20T14:37:02;99496.75;;;7.80;48.38
27685;BME280;46113;50.130;8.526;2023-02-20T14:39:56;99499.44;;;8.00;48.63
27685;BME280;46113;50.130;8.526;2023-02-20T14:42:27;99481.59;;;7.86;48.45
27685;BME280;46113;50.130;8.526;2023-02-20T14:45:03;99496.34;;;7.48;48.74
27685;BME280;46113;50.130;8.526;2023-02-20T14:47:32;99488.91;;;7.79;49.13
27685;BME280;46113;50.130;8.526;2023-02-20T14:50:34;99482.22;;;7.92;49.01
27685;BME280;46113;50.130;8.526;2023-02-20T14:53:14;99490.38;;;7.65;47.85
27685;BME280;46113;50.130;8.526;2023-02-20T14:55:41;99495.16;;;7.76;48.46
27685;BME280;46113;50.130;8.526;2023-02-20T14:58:17;99512.50;;;7.82;47.69
27685;BME280;46113;50.130;8.526;2023-02-20T15:00:45;99503.00;;;7.57;48.47
27685;BME280;46113;50.130;8.526;2023-02-20T15:03:24;99496.09;;;7.75;48.88
27685;BME280;46113;50.130;8.526;2023-02-20T15:12:02;99506.00;;;7.25;49.60
27685;BME280;46113;50.130;8.526;2023-02-20T15:14:32;99501.56;;;7.50;47.67
27685;BME280;46113;50.130;8.526;2023-02-20T15:19:50;99509.31;;;7.30;50.19
27685;BME280;46113;50.130;8.526;2023-02-20T15:22:32;99514.06;;;6.98;50.17
27685;BME280;46113;50.130;8.526;2023-02-20T15:25:25;99515.03;;;7.20;50.52
27685;BME280;46113;50.130;8.526;2023-02-20T15:33:53;99514.28;;;7.16;52.82
27685;BME280;46113;50.130;8.526;2023-02-20T15:36:24;99511.84;;;7.11;51.36
27685;BME280;46113;50.130;8.526;2023-02-20T15:38:53;99508.75;;;7.00;53.72
27685;BME280;46113;50.130;8.526;2023-02-20T15:41:22;99516.25;;;6.63;53.42
27685;BME280;46113;50.130;8.526;2023-02-20T15:43:49;99508.06;;;6.95;52.98
27685;BME280;46113;50.130;8.526;2023-02-20T15:46:18;99505.59;;;6.90;51.92
27685;BME280;46113;50.130;8.526;2023-02-20T15:48:45;99510.25;;;7.07;52.28
27685;BME280;46113;50.130;8.526;2023-02-20T15:51:17;99504.13;;;7.07;51.95